sensor_id;sensor_type;location;lat;lon;timestamp;P1;durP1;ratioP1;P2;durP2;ratioP2
5428;SDS011;2737;52.386;9.980;2023-04-06T00:01:03;11.73;;;8.83;;
5428;SDS011;2737;52.386;9.980;2023-04-06T00:03:30;12.83;;;9.20;;
5428;SDS011;2737;52.386;9.980;2023-04-06T00:05:57;12.40;;;8.63;;
5428;SDS011;2737;52.386;9.980;2023-04-06T00:08:26;14.40;;;9.73;;
5428;SDS011;2737;52.386;9.980;2023-04-06T00:10:53;16.60;;;8.80;;
5428;SDS011;2737;52.386;9.980;2023-04-06T00:13:20;12.83;;;10.23;;
5428;SDS011;2737;52.386;9.980;2023-04-06T00:15:48;13.47;;;9.70;;
5428;SDS011;2737;52.386;9.980;2023-04-06T00:18:15;15.57;;;9.70;;
5428;SDS011;2737;52.386;9.980;2023-04-06T00:20:42;14.70;;;9.53;;
5428;SDS011;2737;52.386;9.980;2023-04-06T00:23:09;12.93;;;9.67;;
5428;SDS011;2737;52.386;9.980;2023-04-06T00:25:37;14.33;;;9.77;;
5428;SDS011;2737;52.386;9.980;2023-04-06T00:28:05;16.50;;;10.87;;
5428;SDS011;2737;52.386;9.980;2023-04-06T00:30:32;16.60;;;9.73;;
5428;SDS011;2737;52.386;9.980;2023-04-06T00:32:59;13.03;;;9.33;;
5428;SDS011;2737;52.386;9.980;2023-04-06T00:35:26;12.73;;;9.27;;
5428;SDS011;2737;52.386;9.980;2023-04-06T00:37:53;14.93;;;10.33;;
5428;SDS011;2737;52.386;9.980;2023-04-06T00:40:20;16.70;;;10.33;;
5428;SDS011;2737;52.386;9.980;2023-04-06T00:42:49;13.37;;;9.20;;
5428;SDS011;2737;52.386;9.980;2023-04-06T00:45:16;15.47;;;9.83;;
5428;SDS011;2737;52.386;9.980;2023-04-06T00:47:43;11.83;;;8.90;;
5428;SDS011;2737;52.386;9.980;2023-04-06T00:50:10;14.90;;;9.60;;
5428;SDS011;2737;52.386;9.980;2023-04-06T00:52:37;14.50;;;9.17;;
5428;SDS011;2737;52.386;9.980;2023-04-06T00:55:05;13.67;;;9.33;;
5428;SDS011;2737;52.386;9.980;2023-04-06T00:57:33;14.00;;;9.30;;
5428;SDS011;2737;52.386;9.980;2023-04-06T01:00:01;14.97;;;9.67;;
5428;SDS011;2737;52.386;9.980;2023-04-06T01:02:29;13.87;;;9.57;;
5428;SDS011;2737;52.386;9.980;2023-04-06T01:04:57;16.83;;;9.90;;
5428;SDS011;2737;52.386;9.980;2023-04-06T01:07:24;10.20;;;8.00;;
5428;SDS011;2737;52.386;9.980;2023-04-06T01:09:52;17.90;;;9.57;;
5428;SDS011;2737;52.386;9.980;2023-04-06T01:12:19;12.83;;;9.07;;
5428;SDS011;2737;52.386;9.980;2023-04-06T01:14:46;12.23;;;8.53;;
5428;SDS011;2737;52.386;9.980;2023-04-06T01:17:16;15.80;;;10.20;;
5428;SDS011;2737;52.386;9.980;2023-04-06T01:19:43;14.77;;;9.17;;
5428;SDS011;2737;52.386;9.980;2023-04-06T01:22:15;17.07;;;10.30;;
5428;SDS011;2737;52.386;9.980;2023-04-06T01:24:42;17.30;;;9.90;;
5428;SDS011;2737;52.386;9.980;2023-04-06T01:27:09;12.67;;;8.90;;
5428;SDS011;2737;52.386;9.980;2023-04-06T01:29:37;13.50;;;9.07;;
5428;SDS011;2737;52.386;9.980;2023-04-06T01:32:06;19.33;;;9.63;;
5428;SDS011;2737;52.386;9.980;2023-04-06T01:34:33;15.77;;;9.63;;
5428;SDS011;2737;52.386;9.980;2023-04-06T01:37:01;14.60;;;9.67;;
5428;SDS011;2737;52.386;9.980;2023-04-06T01:39:29;14.60;;;9.90;;
5428;SDS011;2737;52.386;9.980;2023-04-06T01:41:57;15.00;;;10.20;;
5428;SDS011;2737;52.386;9.980;2023-04-06T01:44:24;16.10;;;11.13;;
5428;SDS011;2737;52.386;9.980;2023-04-06T01:46:51;17.60;;;10.70;;
5428;SDS011;2737;52.386;9.980;2023-04-06T01:49:18;16.17;;;10.63;;
5428;SDS011;2737;52.386;9.980;2023-04-06T01:51:45;17.03;;;11.07;;
5428;SDS011;2737;52.386;9.980;2023-04-06T01:54:12;15.27;;;9.80;;
5428;SDS011;2737;52.386;9.980;2023-04-06T01:56:41;16.93;;;11.10;;
5428;SDS011;2737;52.386;9.980;2023-04-06T01:59:08;15.40;;;10.27;;
5428;SDS011;2737;52.386;9.980;2023-04-06T02:01:35;18.87;;;9.80;;
5428;SDS011;2737;52.386;9.980;2023-04-06T02:04:02;15.00;;;9.43;;
5428;SDS011;2737;52.386;9.980;2023-04-06T02:06:29;15.60;;;10.10;;
5428;SDS011;2737;52.386;9.980;2023-04-06T02:08:57;29.77;;;10.07;;
5428;SDS011;2737;52.386;9.980;2023-04-06T02:11:24;16.20;;;10.10;;
5428;SDS011;2737;52.386;9.980;2023-04-06T02:13:52;16.83;;;10.07;;
5428;SDS011;2737;52.386;9.980;2023-04-06T02:16:19;14.80;;;10.03;;
5428;SDS011;2737;52.386;9.980;2023-04-06T02:18:47;20.63;;;10.00;;
5428;SDS011;2737;52.386;9.980;2023-04-06T02:21:14;17.60;;;10.23;;
5428;SDS011;2737;52.386;9.980;2023-04-06T02:23:45;18.63;;;10.23;;
5428;SDS011;2737;52.386;9.980;2023-04-06T02:26:12;15.73;;;9.70;;
5428;SDS011;2737;52.386;9.980;2023-04-06T02:28:39;18.00;;;10.77;;
5428;SDS011;2737;52.386;9.980;2023-04-06T02:31:08;16.80;;;10.80;;
5428;SDS011;2737;52.386;9.980;2023-04-06T02:33:36;19.10;;;10.50;;
5428;SDS011;2737;52.386;9.980;2023-04-06T02:36:03;19.73;;;10.20;;
5428;SDS011;2737;52.386;9.980;2023-04-06T02:38:30;14.50;;;9.93;;
5428;SDS011;2737;52.386;9.980;2023-04-06T02:40:57;16.57;;;9.73;;
5428;SDS011;2737;52.386;9.980;2023-04-06T02:43:24;16.50;;;9.73;;
5428;SDS011;2737;52.386;9.980;2023-04-06T02:45:51;18.33;;;10.37;;
5428;SDS011;2737;52.386;9.980;2023-04-06T02:48:20;16.90;;;10.27;;
5428;SDS011;2737;52.386;9.980;2023-04-06T02:50:47;14.00;;;9.60;;
5428;SDS011;2737;52.386;9.980;2023-04-06T02:53:14;20.77;;;9.83;;
5428;SDS011;2737;52.386;9.980;2023-04-06T02:55:41;19.00;;;11.00;;
5428;SDS011;2737;52.386;9.980;2023-04-06T02:58:08;17.53;;;10.60;;
5428;SDS011;2737;52.386;9.980;2023-04-06T03:00:36;17.47;;;9.30;;
5428;SDS011;2737;52.386;9.980;2023-04-06T03:03:03;17.20;;;10.40;;
5428;SDS011;2737;52.386;9.980;2023-04-06T03:05:32;16.60;;;9.07;;
5428;SDS011;2737;52.386;9.980;2023-04-06T03:07:59;16.50;;;8.60;;
5428;SDS011;2737;52.386;9.980;2023-04-06T03:10:26;18.23;;;9.60;;
5428;SDS011;2737;52.386;9.980;2023-04-06T03:12:53;21.33;;;9.00;;
5428;SDS011;2737;52.386;9.980;2023-04-06T03:15:20;12.93;;;8.87;;
5428;SDS011;2737;52.386;9.980;2023-04-06T03:17:47;15.70;;;11.80;;
5428;SDS011;2737;52.386;9.980;2023-04-06T03:20:14;16.53;;;10.17;;
5428;SDS011;2737;52.386;9.980;2023-04-06T03:22:43;15.60;;;9.27;;
5428;SDS011;2737;52.386;9.980;2023-04-06T03:25:10;16.53;;;9.30;;
5428;SDS011;2737;52.386;9.980;2023-04-06T03:27:37;16.13;;;9.90;;
5428;SDS011;2737;52.386;9.980;2023-04-06T03:30:06;14.17;;;8.70;;
5428;SDS011;2737;52.386;9.980;2023-04-06T03:32:33;12.17;;;7.87;;
5428;SDS011;2737;52.386;9.980;2023-04-06T03:35:00;13.97;;;8.17;;
5428;SDS011;2737;52.386;9.980;2023-04-06T03:37:27;15.47;;;8.40;;
5428;SDS011;2737;52.386;9.980;2023-04-06T03:39:56;16.40;;;9.33;;
5428;SDS011;2737;52.386;9.980;2023-04-06T03:42:23;14.43;;;8.80;;
5428;SDS011;2737;52.386;9.980;2023-04-06T03:44:51;16.50;;;8.47;;
5428;SDS011;2737;52.386;9.980;2023-04-06T03:47:18;15.67;;;7.63;;
5428;SDS011;2737;52.386;9.980;2023-04-06T03:49:45;11.10;;;7.40;;
5428;SDS011;2737;52.386;9.980;2023-04-06T03:52:13;12.57;;;7.70;;
5428;SDS011;2737;52.386;9.980;2023-04-06T03:54:40;14.97;;;7.83;;
5428;SDS011;2737;52.386;9.980;2023-04-06T03:57:08;15.00;;;7.47;;
5428;SDS011;2737;52.386;9.980;2023-04-06T03:59:35;13.03;;;8.10;;
5428;SDS011;2737;52.386;9.980;2023-04-06T04:02:03;13.60;;;7.53;;
5428;SDS011;2737;52.386;9.980;2023-04-06T04:04:30;13.93;;;7.60;;
5428;SDS011;2737;52.386;9.980;2023-04-06T04:06:57;11.43;;;6.83;;
5428;SDS011;2737;52.386;9.980;2023-04-06T04:09:24;9.67;;;6.30;;
5428;SDS011;2737;52.386;9.980;2023-04-06T04:11:51;14.73;;;6.50;;
5428;SDS011;2737;52.386;9.980;2023-04-06T04:14:20;11.17;;;6.83;;
5428;SDS011;2737;52.386;9.980;2023-04-06T04:16:47;10.73;;;6.50;;
5428;SDS011;2737;52.386;9.980;2023-04-06T04:19:14;12.33;;;7.50;;
5428;SDS011;2737;52.386;9.980;2023-04-06T04:21:42;11.00;;;6.43;;
5428;SDS011;2737;52.386;9.980;2023-04-06T04:24:10;11.27;;;6.80;;
5428;SDS011;2737;52.386;9.980;2023-04-06T04:26:38;10.00;;;6.70;;
5428;SDS011;2737;52.386;9.980;2023-04-06T04:29:06;11.93;;;7.53;;
5428;SDS011;2737;52.386;9.980;2023-04-06T04:31:34;11.83;;;7.57;;
5428;SDS011;2737;52.386;9.980;2023-04-06T04:34:02;12.13;;;7.17;;
5428;SDS011;2737;52.386;9.980;2023-04-06T04:36:29;13.83;;;6.97;;
5428;SDS011;2737;52.386;9.980;2023-04-06T04:38:56;15.53;;;6.77;;
5428;SDS011;2737;52.386;9.980;2023-04-06T04:41:23;16.33;;;7.73;;
5428;SDS011;2737;52.386;9.980;2023-04-06T04:43:50;14.53;;;7.10;;
5428;SDS011;2737;52.386;9.980;2023-04-06T04:46:17;14.93;;;7.67;;
5428;SDS011;2737;52.386;9.980;2023-04-06T04:48:45;14.03;;;7.80;;
5428;SDS011;2737;52.386;9.980;2023-04-06T04:51:12;12.37;;;7.43;;
5428;SDS011;2737;52.386;9.980;2023-04-06T04:53:40;10.97;;;6.73;;
5428;SDS011;2737;52.386;9.980;2023-04-06T04:56:07;14.83;;;7.23;;
5428;SDS011;2737;52.386;9.980;2023-04-06T04:58:34;21.13;;;6.90;;
5428;SDS011;2737;52.386;9.980;2023-04-06T05:01:01;10.10;;;6.90;;
5428;SDS011;2737;52.386;9.980;2023-04-06T05:03:28;15.00;;;7.20;;
5428;SDS011;2737;52.386;9.980;2023-04-06T05:05:57;11.53;;;6.73;;
5428;SDS011;2737;52.386;9.980;2023-04-06T05:08:24;16.27;;;8.83;;
5428;SDS011;2737;52.386;9.980;2023-04-06T05:10:51;16.60;;;8.17;;
5428;SDS011;2737;52.386;9.980;2023-04-06T05:13:18;13.23;;;7.27;;
5428;SDS011;2737;52.386;9.980;2023-04-06T05:15:45;11.70;;;7.47;;
5428;SDS011;2737;52.386;9.980;2023-04-06T05:18:13;13.03;;;6.50;;
5428;SDS011;2737;52.386;9.980;2023-04-06T05:20:40;10.80;;;6.30;;
5428;SDS011;2737;52.386;9.980;2023-04-06T05:23:08;9.50;;;6.47;;
5428;SDS011;2737;52.386;9.980;2023-04-06T05:25:36;11.63;;;6.30;;
5428;SDS011;2737;52.386;9.980;2023-04-06T05:28:03;14.37;;;7.07;;
5428;SDS011;2737;52.386;9.980;2023-04-06T05:30:30;18.70;;;7.27;;
5428;SDS011;2737;52.386;9.980;2023-04-06T05:32:57;12.43;;;6.90;;
5428;SDS011;2737;52.386;9.980;2023-04-06T05:35:25;11.37;;;6.80;;
5428;SDS011;2737;52.386;9.980;2023-04-06T05:37:52;11.37;;;7.00;;
5428;SDS011;2737;52.386;9.980;2023-04-06T05:40:20;13.70;;;6.70;;
5428;SDS011;2737;52.386;9.980;2023-04-06T05:42:48;12.67;;;6.60;;
5428;SDS011;2737;52.386;9.980;2023-04-06T05:45:16;14.50;;;7.40;;
5428;SDS011;2737;52.386;9.980;2023-04-06T05:47:43;20.47;;;6.70;;
5428;SDS011;2737;52.386;9.980;2023-04-06T05:50:11;16.10;;;5.90;;
5428;SDS011;2737;52.386;9.980;2023-04-06T05:52:38;11.70;;;6.23;;
5428;SDS011;2737;52.386;9.980;2023-04-06T05:55:08;15.00;;;5.97;;
5428;SDS011;2737;52.386;9.980;2023-04-06T05:57:37;14.57;;;6.40;;
5428;SDS011;2737;52.386;9.980;2023-04-06T06:00:05;16.20;;;6.30;;
5428;SDS011;2737;52.386;9.980;2023-04-06T06:02:35;13.63;;;6.77;;
5428;SDS011;2737;52.386;9.980;2023-04-06T06:05:02;10.20;;;5.70;;
5428;SDS011;2737;52.386;9.980;2023-04-06T06:07:29;13.73;;;6.47;;
5428;SDS011;2737;52.386;9.980;2023-04-06T06:09:56;13.70;;;5.77;;
5428;SDS011;2737;52.386;9.980;2023-04-06T06:12:24;20.20;;;5.93;;
5428;SDS011;2737;52.386;9.980;2023-04-06T06:14:52;11.03;;;6.60;;
5428;SDS011;2737;52.386;9.980;2023-04-06T06:17:23;13.57;;;5.60;;
5428;SDS011;2737;52.386;9.980;2023-04-06T06:19:50;9.40;;;6.00;;
5428;SDS011;2737;52.386;9.980;2023-04-06T06:22:17;17.50;;;5.80;;
5428;SDS011;2737;52.386;9.980;2023-04-06T06:24:44;12.07;;;6.40;;
5428;SDS011;2737;52.386;9.980;2023-04-06T06:27:11;12.53;;;5.40;;
5428;SDS011;2737;52.386;9.980;2023-04-06T06:29:38;9.50;;;5.57;;
5428;SDS011;2737;52.386;9.980;2023-04-06T06:32:07;11.37;;;5.07;;
5428;SDS011;2737;52.386;9.980;2023-04-06T06:34:34;8.60;;;5.80;;
5428;SDS011;2737;52.386;9.980;2023-04-06T06:37:02;11.93;;;5.90;;
5428;SDS011;2737;52.386;9.980;2023-04-06T06:39:29;27.23;;;6.40;;
5428;SDS011;2737;52.386;9.980;2023-04-06T06:41:56;10.20;;;5.47;;
5428;SDS011;2737;52.386;9.980;2023-04-06T06:44:25;11.00;;;5.67;;
5428;SDS011;2737;52.386;9.980;2023-04-06T06:46:52;15.20;;;6.33;;
5428;SDS011;2737;52.386;9.980;2023-04-06T06:49:21;15.03;;;6.10;;
5428;SDS011;2737;52.386;9.980;2023-04-06T06:51:48;11.20;;;5.70;;
5428;SDS011;2737;52.386;9.980;2023-04-06T06:54:15;17.10;;;6.60;;
5428;SDS011;2737;52.386;9.980;2023-04-06T06:56:42;9.97;;;5.93;;
5428;SDS011;2737;52.386;9.980;2023-04-06T06:59:10;11.00;;;6.13;;
5428;SDS011;2737;52.386;9.980;2023-04-06T07:01:37;17.27;;;7.07;;
5428;SDS011;2737;52.386;9.980;2023-04-06T07:04:04;15.60;;;5.90;;
5428;SDS011;2737;52.386;9.980;2023-04-06T07:06:34;15.43;;;6.30;;
5428;SDS011;2737;52.386;9.980;2023-04-06T07:09:01;13.73;;;6.10;;
5428;SDS011;2737;52.386;9.980;2023-04-06T07:11:28;14.30;;;5.70;;
5428;SDS011;2737;52.386;9.980;2023-04-06T07:13:56;11.87;;;5.23;;
5428;SDS011;2737;52.386;9.980;2023-04-06T07:16:23;10.00;;;5.80;;
5428;SDS011;2737;52.386;9.980;2023-04-06T07:18:50;9.60;;;5.13;;
5428;SDS011;2737;52.386;9.980;2023-04-06T07:21:17;11.93;;;5.90;;
5428;SDS011;2737;52.386;9.980;2023-04-06T07:23:45;11.23;;;5.00;;
5428;SDS011;2737;52.386;9.980;2023-04-06T07:26:13;14.33;;;5.87;;
5428;SDS011;2737;52.386;9.980;2023-04-06T07:28:40;9.47;;;5.60;;
5428;SDS011;2737;52.386;9.980;2023-04-06T07:31:07;12.53;;;5.77;;
5428;SDS011;2737;52.386;9.980;2023-04-06T07:33:34;11.53;;;5.00;;
5428;SDS011;2737;52.386;9.980;2023-04-06T07:36:01;10.53;;;5.10;;
5428;SDS011;2737;52.386;9.980;2023-04-06T07:38:28;6.73;;;5.30;;
5428;SDS011;2737;52.386;9.980;2023-04-06T07:40:57;8.67;;;5.00;;
5428;SDS011;2737;52.386;9.980;2023-04-06T07:43:24;11.63;;;5.00;;
5428;SDS011;2737;52.386;9.980;2023-04-06T07:45:51;8.23;;;5.30;;
5428;SDS011;2737;52.386;9.980;2023-04-06T07:48:18;10.33;;;5.03;;
5428;SDS011;2737;52.386;9.980;2023-04-06T07:50:45;9.73;;;4.50;;
5428;SDS011;2737;52.386;9.980;2023-04-06T07:53:13;17.40;;;5.80;;
5428;SDS011;2737;52.386;9.980;2023-04-06T07:55:40;12.93;;;5.00;;
5428;SDS011;2737;52.386;9.980;2023-04-06T07:58:08;8.40;;;4.97;;
5428;SDS011;2737;52.386;9.980;2023-04-06T08:00:35;8.23;;;3.83;;
5428;SDS011;2737;52.386;9.980;2023-04-06T08:03:02;8.47;;;4.90;;
5428;SDS011;2737;52.386;9.980;2023-04-06T08:05:30;7.60;;;4.53;;
5428;SDS011;2737;52.386;9.980;2023-04-06T08:07:57;7.37;;;4.47;;
5428;SDS011;2737;52.386;9.980;2023-04-06T08:10:24;7.43;;;4.90;;
5428;SDS011;2737;52.386;9.980;2023-04-06T08:12:51;11.50;;;4.80;;
5428;SDS011;2737;52.386;9.980;2023-04-06T08:15:20;13.37;;;4.20;;
5428;SDS011;2737;52.386;9.980;2023-04-06T08:17:47;10.87;;;4.80;;
5428;SDS011;2737;52.386;9.980;2023-04-06T08:20:14;10.50;;;4.50;;
5428;SDS011;2737;52.386;9.980;2023-04-06T08:22:41;8.90;;;5.47;;
5428;SDS011;2737;52.386;9.980;2023-04-06T08:25:09;8.80;;;4.40;;
5428;SDS011;2737;52.386;9.980;2023-04-06T08:27:36;7.73;;;4.47;;
5428;SDS011;2737;52.386;9.980;2023-04-06T08:30:03;8.97;;;5.17;;
5428;SDS011;2737;52.386;9.980;2023-04-06T08:32:32;11.67;;;4.67;;
5428;SDS011;2737;52.386;9.980;2023-04-06T08:34:59;5.83;;;4.57;;
5428;SDS011;2737;52.386;9.980;2023-04-06T08:37:26;10.33;;;4.07;;
5428;SDS011;2737;52.386;9.980;2023-04-06T08:39:53;7.63;;;4.47;;
5428;SDS011;2737;52.386;9.980;2023-04-06T08:42:21;9.10;;;4.73;;
5428;SDS011;2737;52.386;9.980;2023-04-06T08:44:51;7.63;;;4.07;;
5428;SDS011;2737;52.386;9.980;2023-04-06T08:47:18;7.73;;;4.17;;
5428;SDS011;2737;52.386;9.980;2023-04-06T08:49:47;8.30;;;5.00;;
5428;SDS011;2737;52.386;9.980;2023-04-06T08:52:15;9.67;;;4.83;;
5428;SDS011;2737;52.386;9.980;2023-04-06T08:54:44;8.40;;;4.70;;
5428;SDS011;2737;52.386;9.980;2023-04-06T08:57:12;7.50;;;5.00;;
5428;SDS011;2737;52.386;9.980;2023-04-06T08:59:39;6.10;;;4.73;;
5428;SDS011;2737;52.386;9.980;2023-04-06T09:02:07;7.13;;;4.37;;
5428;SDS011;2737;52.386;9.980;2023-04-06T09:04:42;7.90;;;4.83;;
5428;SDS011;2737;52.386;9.980;2023-04-06T09:07:12;7.40;;;4.50;;
5428;SDS011;2737;52.386;9.980;2023-04-06T09:09:40;8.27;;;4.50;;
5428;SDS011;2737;52.386;9.980;2023-04-06T09:12:21;7.80;;;4.60;;
5428;SDS011;2737;52.386;9.980;2023-04-06T09:14:49;6.30;;;4.27;;
5428;SDS011;2737;52.386;9.980;2023-04-06T09:17:20;8.63;;;4.77;;
5428;SDS011;2737;52.386;9.980;2023-04-06T09:19:48;8.03;;;4.77;;
5428;SDS011;2737;52.386;9.980;2023-04-06T09:22:17;11.70;;;5.33;;
5428;SDS011;2737;52.386;9.980;2023-04-06T09:24:45;8.20;;;5.00;;
5428;SDS011;2737;52.386;9.980;2023-04-06T09:27:14;10.53;;;4.43;;
5428;SDS011;2737;52.386;9.980;2023-04-06T09:29:42;7.13;;;4.20;;
5428;SDS011;2737;52.386;9.980;2023-04-06T09:32:10;9.90;;;5.10;;
5428;SDS011;2737;52.386;9.980;2023-04-06T09:34:41;7.70;;;4.40;;
5428;SDS011;2737;52.386;9.980;2023-04-06T09:37:13;7.90;;;4.50;;
5428;SDS011;2737;52.386;9.980;2023-04-06T09:39:42;7.57;;;5.03;;
5428;SDS011;2737;52.386;9.980;2023-04-06T09:42:09;7.30;;;4.40;;
5428;SDS011;2737;52.386;9.980;2023-04-06T09:44:49;12.37;;;5.40;;
5428;SDS011;2737;52.386;9.980;2023-04-06T09:47:16;9.90;;;5.23;;
5428;SDS011;2737;52.386;9.980;2023-04-06T09:49:45;12.20;;;4.97;;
5428;SDS011;2737;52.386;9.980;2023-04-06T09:52:14;6.37;;;4.40;;
5428;SDS011;2737;52.386;9.980;2023-04-06T09:54:44;11.83;;;5.63;;
5428;SDS011;2737;52.386;9.980;2023-04-06T09:57:19;14.87;;;5.00;;
5428;SDS011;2737;52.386;9.980;2023-04-06T09:59:54;5.47;;;4.40;;
5428;SDS011;2737;52.386;9.980;2023-04-06T10:02:34;8.80;;;4.67;;
5428;SDS011;2737;52.386;9.980;2023-04-06T10:05:08;7.07;;;4.70;;
5428;SDS011;2737;52.386;9.980;2023-04-06T10:07:39;6.50;;;4.70;;
5428;SDS011;2737;52.386;9.980;2023-04-06T10:10:09;7.30;;;5.20;;
5428;SDS011;2737;52.386;9.980;2023-04-06T10:12:37;9.50;;;5.20;;
5428;SDS011;2737;52.386;9.980;2023-04-06T10:15:06;10.90;;;5.30;;
5428;SDS011;2737;52.386;9.980;2023-04-06T10:17:34;12.33;;;5.40;;
5428;SDS011;2737;52.386;9.980;2023-04-06T10:20:02;12.00;;;5.00;;
5428;SDS011;2737;52.386;9.980;2023-04-06T10:22:35;9.00;;;4.97;;
5428;SDS011;2737;52.386;9.980;2023-04-06T10:25:09;6.97;;;4.40;;
5428;SDS011;2737;52.386;9.980;2023-04-06T10:27:36;9.00;;;5.33;;
5428;SDS011;2737;52.386;9.980;2023-04-06T10:30:03;10.70;;;5.07;;
5428;SDS011;2737;52.386;9.980;2023-04-06T10:32:33;7.50;;;5.53;;
5428;SDS011;2737;52.386;9.980;2023-04-06T10:35:05;5.67;;;4.47;;
5428;SDS011;2737;52.386;9.980;2023-04-06T10:37:45;15.40;;;5.87;;
5428;SDS011;2737;52.386;9.980;2023-04-06T10:40:24;9.83;;;5.37;;
5428;SDS011;2737;52.386;9.980;2023-04-06T10:42:53;7.93;;;4.60;;
5428;SDS011;2737;52.386;9.980;2023-04-06T10:45:22;10.60;;;5.77;;
5428;SDS011;2737;52.386;9.980;2023-04-06T10:47:52;6.03;;;5.00;;
5428;SDS011;2737;52.386;9.980;2023-04-06T10:50:20;8.30;;;5.53;;
5428;SDS011;2737;52.386;9.980;2023-04-06T10:52:47;7.43;;;5.00;;
5428;SDS011;2737;52.386;9.980;2023-04-06T10:55:27;11.93;;;5.60;;
5428;SDS011;2737;52.386;9.980;2023-04-06T10:57:55;8.70;;;5.50;;
5428;SDS011;2737;52.386;9.980;2023-04-06T11:00:22;11.40;;;5.77;;
5428;SDS011;2737;52.386;9.980;2023-04-06T11:02:50;7.80;;;5.10;;
5428;SDS011;2737;52.386;9.980;2023-04-06T11:05:18;8.90;;;5.60;;
5428;SDS011;2737;52.386;9.980;2023-04-06T11:07:45;7.37;;;5.10;;
5428;SDS011;2737;52.386;9.980;2023-04-06T11:10:12;8.00;;;4.77;;
5428;SDS011;2737;52.386;9.980;2023-04-06T11:12:52;11.60;;;5.30;;
5428;SDS011;2737;52.386;9.980;2023-04-06T11:15:20;8.50;;;5.27;;
5428;SDS011;2737;52.386;9.980;2023-04-06T11:17:47;10.97;;;5.70;;
5428;SDS011;2737;52.386;9.980;2023-04-06T11:20:15;8.60;;;5.40;;
5428;SDS011;2737;52.386;9.980;2023-04-06T11:22:49;9.00;;;5.50;;
5428;SDS011;2737;52.386;9.980;2023-04-06T11:25:17;10.93;;;4.83;;
5428;SDS011;2737;52.386;9.980;2023-04-06T11:27:44;8.30;;;5.37;;
5428;SDS011;2737;52.386;9.980;2023-04-06T11:30:14;12.23;;;5.17;;
5428;SDS011;2737;52.386;9.980;2023-04-06T11:32:41;9.50;;;5.53;;
5428;SDS011;2737;52.386;9.980;2023-04-06T11:35:19;7.93;;;5.00;;
5428;SDS011;2737;52.386;9.980;2023-04-06T11:37:48;8.00;;;5.70;;
5428;SDS011;2737;52.386;9.980;2023-04-06T11:40:15;8.27;;;5.10;;
5428;SDS011;2737;52.386;9.980;2023-04-06T11:42:51;8.40;;;5.43;;
5428;SDS011;2737;52.386;9.980;2023-04-06T11:45:20;7.03;;;4.90;;
5428;SDS011;2737;52.386;9.980;2023-04-06T11:47:55;9.00;;;5.37;;
5428;SDS011;2737;52.386;9.980;2023-04-06T11:50:24;11.60;;;5.10;;
5428;SDS011;2737;52.386;9.980;2023-04-06T11:52:58;9.03;;;5.83;;
5428;SDS011;2737;52.386;9.980;2023-04-06T11:55:26;9.33;;;5.77;;
5428;SDS011;2737;52.386;9.980;2023-04-06T11:57:53;13.50;;;5.30;;
5428;SDS011;2737;52.386;9.980;2023-04-06T12:00:22;8.60;;;5.70;;
5428;SDS011;2737;52.386;9.980;2023-04-06T12:02:49;9.00;;;5.17;;
5428;SDS011;2737;52.386;9.980;2023-04-06T12:05:16;6.97;;;5.10;;
5428;SDS011;2737;52.386;9.980;2023-04-06T12:07:43;11.13;;;5.97;;
5428;SDS011;2737;52.386;9.980;2023-04-06T12:10:11;9.50;;;5.80;;
5428;SDS011;2737;52.386;9.980;2023-04-06T12:12:38;11.53;;;5.40;;
5428;SDS011;2737;52.386;9.980;2023-04-06T12:15:06;9.93;;;5.83;;
5428;SDS011;2737;52.386;9.980;2023-04-06T12:17:35;7.73;;;5.40;;
5428;SDS011;2737;52.386;9.980;2023-04-06T12:20:02;9.83;;;5.90;;
5428;SDS011;2737;52.386;9.980;2023-04-06T12:22:30;8.20;;;5.77;;
5428;SDS011;2737;52.386;9.980;2023-04-06T12:24:57;7.87;;;5.33;;
5428;SDS011;2737;52.386;9.980;2023-04-06T12:27:24;9.80;;;6.00;;
5428;SDS011;2737;52.386;9.980;2023-04-06T12:29:51;10.40;;;5.53;;
5428;SDS011;2737;52.386;9.980;2023-04-06T12:32:20;7.83;;;5.50;;
5428;SDS011;2737;52.386;9.980;2023-04-06T12:34:50;8.93;;;5.80;;
5428;SDS011;2737;52.386;9.980;2023-04-06T12:37:18;7.63;;;4.90;;
5428;SDS011;2737;52.386;9.980;2023-04-06T12:39:45;14.27;;;5.57;;
5428;SDS011;2737;52.386;9.980;2023-04-06T12:42:13;7.90;;;4.93;;
5428;SDS011;2737;52.386;9.980;2023-04-06T12:44:40;5.80;;;4.83;;
5428;SDS011;2737;52.386;9.980;2023-04-06T12:47:07;8.97;;;5.90;;
5428;SDS011;2737;52.386;9.980;2023-04-06T12:49:36;11.00;;;7.20;;
5428;SDS011;2737;52.386;9.980;2023-04-06T12:52:04;9.13;;;5.83;;
5428;SDS011;2737;52.386;9.980;2023-04-06T12:54:31;11.60;;;5.20;;
5428;SDS011;2737;52.386;9.980;2023-04-06T12:56:58;6.27;;;4.30;;
5428;SDS011;2737;52.386;9.980;2023-04-06T12:59:26;9.20;;;5.23;;
5428;SDS011;2737;52.386;9.980;2023-04-06T13:01:59;8.23;;;5.63;;
5428;SDS011;2737;52.386;9.980;2023-04-06T13:04:26;10.30;;;6.00;;
5428;SDS011;2737;52.386;9.980;2023-04-06T13:06:53;7.93;;;5.67;;
5428;SDS011;2737;52.386;9.980;2023-04-06T13:09:22;12.77;;;6.00;;
5428;SDS011;2737;52.386;9.980;2023-04-06T13:11:49;9.90;;;5.80;;
5428;SDS011;2737;52.386;9.980;2023-04-06T13:14:16;12.77;;;6.80;;
5428;SDS011;2737;52.386;9.980;2023-04-06T13:16:44;9.67;;;5.83;;
5428;SDS011;2737;52.386;9.980;2023-04-06T13:19:11;9.13;;;6.13;;
5428;SDS011;2737;52.386;9.980;2023-04-06T13:21:38;12.90;;;6.70;;
5428;SDS011;2737;52.386;9.980;2023-04-06T13:24:05;10.40;;;5.97;;
5428;SDS011;2737;52.386;9.980;2023-04-06T13:26:34;8.03;;;5.90;;
5428;SDS011;2737;52.386;9.980;2023-04-06T13:29:02;10.30;;;7.30;;
5428;SDS011;2737;52.386;9.980;2023-04-06T13:31:29;10.70;;;6.27;;
5428;SDS011;2737;52.386;9.980;2023-04-06T13:33:56;11.23;;;6.53;;
5428;SDS011;2737;52.386;9.980;2023-04-06T13:36:23;7.23;;;5.63;;
5428;SDS011;2737;52.386;9.980;2023-04-06T13:38:51;11.53;;;6.80;;
5428;SDS011;2737;52.386;9.980;2023-04-06T13:41:20;11.03;;;6.40;;
5428;SDS011;2737;52.386;9.980;2023-04-06T13:43:51;8.70;;;5.67;;
5428;SDS011;2737;52.386;9.980;2023-04-06T13:46:18;9.90;;;6.57;;
5428;SDS011;2737;52.386;9.980;2023-04-06T13:48:46;12.50;;;6.53;;
5428;SDS011;2737;52.386;9.980;2023-04-06T13:51:13;9.60;;;6.23;;
5428;SDS011;2737;52.386;9.980;2023-04-06T13:53:40;10.30;;;6.33;;
5428;SDS011;2737;52.386;9.980;2023-04-06T13:56:08;13.60;;;6.77;;
5428;SDS011;2737;52.386;9.980;2023-04-06T13:58:35;8.30;;;5.87;;
5428;SDS011;2737;52.386;9.980;2023-04-06T14:01:04;9.07;;;5.67;;
5428;SDS011;2737;52.386;9.980;2023-04-06T14:03:32;7.50;;;6.07;;
5428;SDS011;2737;52.386;9.980;2023-04-06T14:05:59;9.60;;;6.50;;
5428;SDS011;2737;52.386;9.980;2023-04-06T14:08:26;8.20;;;5.73;;
5428;SDS011;2737;52.386;9.980;2023-04-06T14:10:54;8.47;;;5.60;;
5428;SDS011;2737;52.386;9.980;2023-04-06T14:13:21;9.07;;;5.23;;
5428;SDS011;2737;52.386;9.980;2023-04-06T14:15:52;9.40;;;5.87;;
5428;SDS011;2737;52.386;9.980;2023-04-06T14:18:21;9.60;;;5.60;;
5428;SDS011;2737;52.386;9.980;2023-04-06T14:20:53;11.83;;;5.83;;
5428;SDS011;2737;52.386;9.980;2023-04-06T14:23:21;9.07;;;5.87;;
5428;SDS011;2737;52.386;9.980;2023-04-06T14:25:48;8.90;;;5.50;;
5428;SDS011;2737;52.386;9.980;2023-04-06T14:28:15;10.77;;;5.90;;
5428;SDS011;2737;52.386;9.980;2023-04-06T14:30:42;8.40;;;6.00;;
5428;SDS011;2737;52.386;9.980;2023-04-06T14:33:09;9.50;;;6.40;;
5428;SDS011;2737;52.386;9.980;2023-04-06T14:35:39;9.43;;;5.57;;
5428;SDS011;2737;52.386;9.980;2023-04-06T14:38:06;9.70;;;5.77;;
5428;SDS011;2737;52.386;9.980;2023-04-06T14:40:34;10.73;;;6.50;;
5428;SDS011;2737;52.386;9.980;2023-04-06T14:43:02;8.33;;;5.33;;
5428;SDS011;2737;52.386;9.980;2023-04-06T14:45:32;9.10;;;5.30;;
5428;SDS011;2737;52.386;9.980;2023-04-06T14:47:59;9.57;;;6.10;;
5428;SDS011;2737;52.386;9.980;2023-04-06T14:50:26;11.17;;;5.87;;
5428;SDS011;2737;52.386;9.980;2023-04-06T14:52:55;9.07;;;5.87;;
5428;SDS011;2737;52.386;9.980;2023-04-06T14:55:22;10.30;;;5.87;;
5428;SDS011;2737;52.386;9.980;2023-04-06T14:57:49;9.20;;;5.70;;
5428;SDS011;2737;52.386;9.980;2023-04-06T15:00:16;11.23;;;6.33;;
5428;SDS011;2737;52.386;9.980;2023-04-06T15:02:43;10.83;;;6.07;;
5428;SDS011;2737;52.386;9.980;2023-04-06T15:05:10;10.67;;;6.20;;
5428;SDS011;2737;52.386;9.980;2023-04-06T15:07:37;10.93;;;6.07;;
5428;SDS011;2737;52.386;9.980;2023-04-06T15:10:07;9.83;;;5.57;;